sensor_id;sensor_type;location;lat;lon;timestamp;pressure;altitude;pressure_sealevel;temperature;humidity
75549;BME280;64133;56.002;37.208;2023-03-01T00:03:20;98224.39;;;-7.15;66.91
75549;BME280;64133;56.002;37.208;2023-03-01T00:08:25;98212.93;;;-7.16;66.85
75549;BME280;64133;56.002;37.208;2023-03-01T00:13:30;98218.10;;;-7.18;66.74
75549;BME280;64133;56.002;37.208;2023-03-01T00:18:34;98218.65;;;-7.23;66.71
75549;BME280;64133;56.002;37.208;2023-03-01T00:23:39;98205.60;;;-7.28;66.80
75549;BME280;64133;56.002;37.208;2023-03-01T00:28:44;98217.30;;;-7.35;66.87
75549;BME280;64133;56.002;37.208;2023-03-01T00:33:51;98216.80;;;-7.32;66.96
75549;BME280;64133;56.002;37.208;2023-03-01T00:38:54;98216.86;;;-7.34;67.01
75549;BME280;64133;56.002;37.208;2023-03-01T00:43:59;98215.97;;;-7.33;67.04
75549;BME280;64133;56.002;37.208;2023-03-01T00:49:03;98217.64;;;-7.32;66.96
75549;BME280;64133;56.002;37.208;2023-03-01T00:54:09;98206.69;;;-7.36;67.15
75549;BME280;64133;56.002;37.208;2023-03-01T00:59:15;98187.41;;;-7.47;67.32
75549;BME280;64133;56.002;37.208;2023-03-01T01:04:19;98202.09;;;-7.39;67.33
75549;BME280;64133;56.002;37.208;2023-03-01T01:09:24;98198.86;;;-7.46;67.54
75549;BME280;64133;56.002;37.208;2023-03-01T01:14:29;98204.55;;;-7.51;67.74
75549;BME280;64133;56.002;37.208;2023-03-01T01:19:34;98206.73;;;-7.53;67.90
75549;BME280;64133;56.002;37.208;2023-03-01T01:24:38;98209.61;;;-7.49;68.11
75549;BME280;64133;56.002;37.208;2023-03-01T01:29:43;98215.73;;;-7.40;68.17
75549;BME280;64133;56.002;37.208;2023-03-01T01:34:48;98204.41;;;-7.31;68.14
75549;BME280;64133;56.002;37.208;2023-03-01T01:39:53;98210.45;;;-7.19;68.05
75549;BME280;64133;56.002;37.208;2023-03-01T01:45:34;98213.47;;;-7.35;68.02
75549;BME280;64133;56.002;37.208;2023-03-01T01:50:38;98211.95;;;-7.56;68.41
75549;BME280;64133;56.002;37.208;2023-03-01T01:55:44;98213.91;;;-7.66;68.69
75549;BME280;64133;56.002;37.208;2023-03-01T02:00:48;98209.36;;;-7.71;69.02
75549;BME280;64133;56.002;37.208;2023-03-01T02:05:53;98212.09;;;-7.77;69.06
75549;BME280;64133;56.002;37.208;2023-03-01T02:10:58;98217.99;;;-7.75;69.26
75549;BME280;64133;56.002;37.208;2023-03-01T02:16:05;98216.89;;;-7.81;69.32
75549;BME280;64133;56.002;37.208;2023-03-01T02:21:19;98220.02;;;-7.87;69.70
75549;BME280;64133;56.002;37.208;2023-03-01T02:26:24;98220.14;;;-7.91;69.73
75549;BME280;64133;56.002;37.208;2023-03-01T02:31:28;98219.95;;;-8.01;69.91
75549;BME280;64133;56.002;37.208;2023-03-01T02:36:49;98223.56;;;-8.08;70.08
75549;BME280;64133;56.002;37.208;2023-03-01T02:41:54;98228.75;;;-8.12;70.25
75549;BME280;64133;56.002;37.208;2023-03-01T02:46:58;98219.60;;;-8.20;70.55
75549;BME280;64133;56.002;37.208;2023-03-01T02:52:11;98215.49;;;-8.26;70.69
75549;BME280;64133;56.002;37.208;2023-03-01T02:57:13;98221.05;;;-8.26;70.88
75549;BME280;64133;56.002;37.208;2023-03-01T03:02:22;98219.00;;;-8.30;71.11
75549;BME280;64133;56.002;37.208;2023-03-01T03:07:26;98228.66;;;-8.25;71.11
75549;BME280;64133;56.002;37.208;2023-03-01T03:12:31;98234.92;;;-8.37;71.24
75549;BME280;64133;56.002;37.208;2023-03-01T03:17:36;98229.91;;;-8.40;71.43
75549;BME280;64133;56.002;37.208;2023-03-01T03:22:41;98232.92;;;-8.42;71.57
75549;BME280;64133;56.002;37.208;2023-03-01T03:27:46;98231.72;;;-8.45;71.74
75549;BME280;64133;56.002;37.208;2023-03-01T03:32:50;98230.66;;;-8.54;71.83
75549;BME280;64133;56.002;37.208;2023-03-01T03:37:56;98228.16;;;-8.55;72.12
75549;BME280;64133;56.002;37.208;2023-03-01T03:43:07;98230.66;;;-8.54;72.17
75549;BME280;64133;56.002;37.208;2023-03-01T03:48:11;98232.70;;;-8.49;72.44
75549;BME280;64133;56.002;37.208;2023-03-01T03:58:29;98241.42;;;-8.41;72.46
75549;BME280;64133;56.002;37.208;2023-03-01T04:03:34;98247.45;;;-8.44;72.66
75549;BME280;64133;56.002;37.208;2023-03-01T04:08:39;98244.81;;;-8.41;72.70
75549;BME280;64133;56.002;37.208;2023-03-01T04:13:47;98249.76;;;-8.35;72.78
75549;BME280;64133;56.002;37.208;2023-03-01T04:18:52;98248.69;;;-8.26;72.75
75549;BME280;64133;56.002;37.208;2023-03-01T04:24:03;98256.59;;;-8.19;72.88
75549;BME280;64133;56.002;37.208;2023-03-01T04:29:11;98253.92;;;-7.96;72.81
75549;BME280;64133;56.002;37.208;2023-03-01T04:39:26;98254.35;;;-7.49;72.13
75549;BME280;64133;56.002;37.208;2023-03-01T04:44:33;98253.91;;;-7.49;71.75
75549;BME280;64133;56.002;37.208;2023-03-01T04:49:38;98257.55;;;-7.41;71.59
75549;BME280;64133;56.002;37.208;2023-03-01T04:54:43;98266.16;;;-7.44;71.48
75549;BME280;64133;56.002;37.208;2023-03-01T04:59:47;98268.84;;;-7.34;71.41
75549;BME280;64133;56.002;37.208;2023-03-01T05:04:52;98266.16;;;-6.85;71.19
75549;BME280;64133;56.002;37.208;2023-03-01T05:09:56;98263.31;;;-5.94;70.09
75549;BME280;64133;56.002;37.208;2023-03-01T05:15:01;98273.91;;;-5.55;68.22
75549;BME280;64133;56.002;37.208;2023-03-01T05:20:06;98276.85;;;-5.79;67.77
75549;BME280;64133;56.002;37.208;2023-03-01T05:25:11;98284.30;;;-5.46;67.17
75549;BME280;64133;56.002;37.208;2023-03-01T05:30:20;98281.86;;;-5.14;66.36
75549;BME280;64133;56.002;37.208;2023-03-01T05:35:24;98288.01;;;-5.07;65.96
75549;BME280;64133;56.002;37.208;2023-03-01T05:40:29;98300.13;;;-4.87;65.52
75549;BME280;64133;56.002;37.208;2023-03-01T05:45:35;98299.89;;;-4.69;64.61
75549;BME280;64133;56.002;37.208;2023-03-01T05:50:43;98302.44;;;-3.50;64.66
75549;BME280;64133;56.002;37.208;2023-03-01T05:55:47;98301.63;;;1.16;57.17
75549;BME280;64133;56.002;37.208;2023-03-01T06:00:52;98309.48;;;-1.67;56.57
75549;BME280;64133;56.002;37.208;2023-03-01T06:05:58;98315.61;;;-2.88;59.10
75549;BME280;64133;56.002;37.208;2023-03-01T06:11:02;98320.19;;;-2.85;59.40
75549;BME280;64133;56.002;37.208;2023-03-01T06:16:08;98324.66;;;-2.69;59.04
75549;BME280;64133;56.002;37.208;2023-03-01T06:21:13;98319.88;;;-2.31;59.13
75549;BME280;64133;56.002;37.208;2023-03-01T06:26:18;98323.28;;;-1.94;57.62
75549;BME280;64133;56.002;37.208;2023-03-01T06:31:22;98321.64;;;-1.01;56.41
75549;BME280;64133;56.002;37.208;2023-03-01T06:36:27;98330.69;;;-1.01;56.25
75549;BME280;64133;56.002;37.208;2023-03-01T06:41:32;98329.30;;;-0.42;55.88
75549;BME280;64133;56.002;37.208;2023-03-01T06:46:37;98323.65;;;1.52;54.22
75549;BME280;64133;56.002;37.208;2023-03-01T06:51:41;98324.52;;;8.51;44.26
75549;BME280;64133;56.002;37.208;2023-03-01T06:56:48;98312.68;;;15.52;34.37
75549;BME280;64133;56.002;37.208;2023-03-01T07:01:53;98322.55;;;15.10;31.43
75549;BME280;64133;56.002;37.208;2023-03-01T07:06:57;98334.13;;;8.37;34.91
75549;BME280;64133;56.002;37.208;2023-03-01T07:12:03;98344.15;;;6.42;38.38
75549;BME280;64133;56.002;37.208;2023-03-01T07:17:07;98355.11;;;5.70;39.68
75549;BME280;64133;56.002;37.208;2023-03-01T07:22:12;98360.05;;;5.17;40.64
75549;BME280;64133;56.002;37.208;2023-03-01T07:27:16;98368.27;;;6.02;38.88
75549;BME280;64133;56.002;37.208;2023-03-01T07:32:21;98370.53;;;5.68;40.06
75549;BME280;64133;56.002;37.208;2023-03-01T07:37:26;98377.47;;;9.79;35.15
75549;BME280;64133;56.002;37.208;2023-03-01T07:42:30;98374.70;;;15.55;28.48
75549;BME280;64133;56.002;37.208;2023-03-01T07:47:35;98368.67;;;13.97;29.15
75549;BME280;64133;56.002;37.208;2023-03-01T07:58:39;98390.48;;;7.25;35.72
75549;BME280;64133;56.002;37.208;2023-03-01T08:03:43;98383.46;;;11.86;30.38
75549;BME280;64133;56.002;37.208;2023-03-01T08:08:48;98373.41;;;18.98;24.76
75549;BME280;64133;56.002;37.208;2023-03-01T08:13:52;98376.05;;;16.87;22.69
75549;BME280;64133;56.002;37.208;2023-03-01T08:18:57;98371.11;;;21.00;22.63
75549;BME280;64133;56.002;37.208;2023-03-01T08:24:03;98396.73;;;10.80;28.13
75549;BME280;64133;56.002;37.208;2023-03-01T08:29:07;98399.12;;;10.55;29.55
75549;BME280;64133;56.002;37.208;2023-03-01T08:34:13;98402.77;;;16.28;25.71
75549;BME280;64133;56.002;37.208;2023-03-01T08:39:17;98415.34;;;10.33;29.33
75549;BME280;64133;56.002;37.208;2023-03-01T08:44:21;98410.84;;;13.35;26.11
75549;BME280;64133;56.002;37.208;2023-03-01T08:49:26;98430.02;;;11.03;29.07
75549;BME280;64133;56.002;37.208;2023-03-01T08:54:48;98421.81;;;17.47;22.42
75549;BME280;64133;56.002;37.208;2023-03-01T08:59:52;98416.75;;;6.88;30.53
75549;BME280;64133;56.002;37.208;2023-03-01T09:10:12;98414.73;;;12.61;25.22
75549;BME280;64133;56.002;37.208;2023-03-01T09:15:16;98425.97;;;8.37;28.31
75549;BME280;64133;56.002;37.208;2023-03-01T09:20:21;98426.21;;;5.51;33.29
75549;BME280;64133;56.002;37.208;2023-03-01T09:25:26;98421.30;;;6.86;32.88
75549;BME280;64133;56.002;37.208;2023-03-01T09:30:30;98418.13;;;7.45;32.62
75549;BME280;64133;56.002;37.208;2023-03-01T09:35:35;98436.07;;;4.48;35.19
75549;BME280;64133;56.002;37.208;2023-03-01T09:40:42;98433.47;;;3.49;37.03
75549;BME280;64133;56.002;37.208;2023-03-01T09:45:47;98427.80;;;3.04;38.20
75549;BME280;64133;56.002;37.208;2023-03-01T09:50:52;98430.27;;;3.76;38.85
75549;BME280;64133;56.002;37.208;2023-03-01T09:55:59;98444.05;;;2.68;39.22
75549;BME280;64133;56.002;37.208;2023-03-01T10:01:04;98441.79;;;2.76;39.48
75549;BME280;64133;56.002;37.208;2023-03-01T10:06:10;98439.75;;;3.52;39.27
75549;BME280;64133;56.002;37.208;2023-03-01T10:11:21;98438.34;;;2.95;38.71
75549;BME280;64133;56.002;37.208;2023-03-01T10:16:26;98452.03;;;3.24;39.33
75549;BME280;64133;56.002;37.208;2023-03-01T10:21:30;98438.96;;;6.23;36.28
75549;BME280;64133;56.002;37.208;2023-03-01T10:31:53;98437.73;;;2.45;40.31
75549;BME280;64133;56.002;37.208;2023-03-01T10:37:00;98442.53;;;3.87;39.07
75549;BME280;64133;56.002;37.208;2023-03-01T10:42:03;98444.78;;;2.90;39.07
75549;BME280;64133;56.002;37.208;2023-03-01T10:47:14;98441.69;;;2.16;41.32
75549;BME280;64133;56.002;37.208;2023-03-01T10:52:19;98432.73;;;2.35;40.76
75549;BME280;64133;56.002;37.208;2023-03-01T10:57:32;98426.91;;;1.75;41.84
75549;BME280;64133;56.002;37.208;2023-03-01T11:02:34;98421.06;;;1.50;42.12
75549;BME280;64133;56.002;37.208;2023-03-01T11:07:49;98435.09;;;3.57;40.79
75549;BME280;64133;56.002;37.208;2023-03-01T11:12:53;98432.88;;;2.19;41.18
75549;BME280;64133;56.002;37.208;2023-03-01T11:17:58;98428.75;;;1.73;42.46
75549;BME280;64133;56.002;37.208;2023-03-01T11:23:04;98438.00;;;1.99;42.18
75549;BME280;64133;56.002;37.208;2023-03-01T11:28:11;98447.38;;;1.51;42.59
75549;BME280;64133;56.002;37.208;2023-03-01T11:33:17;98447.31;;;1.67;42.32
75549;BME280;64133;56.002;37.208;2023-03-01T11:38:23;98448.03;;;1.69;42.24
75549;BME280;64133;56.002;37.208;2023-03-01T11:43:31;98449.98;;;1.00;42.94
75549;BME280;64133;56.002;37.208;2023-03-01T11:48:40;98454.64;;;0.56;44.05
75549;BME280;64133;56.002;37.208;2023-03-01T11:53:53;98457.36;;;0.85;43.75
75549;BME280;64133;56.002;37.208;2023-03-01T11:59:31;98458.69;;;0.14;45.03
75549;BME280;64133;56.002;37.208;2023-03-01T12:10:27;98465.03;;;0.40;44.92
75549;BME280;64133;56.002;37.208;2023-03-01T12:21:01;98467.73;;;0.46;45.23
75549;BME280;64133;56.002;37.208;2023-03-01T12:26:06;98468.67;;;0.13;45.52
75549;BME280;64133;56.002;37.208;2023-03-01T12:37:08;98476.13;;;-0.30;46.83
75549;BME280;64133;56.002;37.208;2023-03-01T12:42:16;98482.94;;;-0.62;47.42
75549;BME280;64133;56.002;37.208;2023-03-01T12:47:26;98481.66;;;-0.88;47.74
75549;BME280;64133;56.002;37.208;2023-03-01T12:52:32;98479.95;;;-1.32;49.16
75549;BME280;64133;56.002;37.208;2023-03-01T12:57:36;98481.13;;;-1.03;49.04
75549;BME280;64133;56.002;37.208;2023-03-01T13:02:42;98486.30;;;-1.12;49.02
75549;BME280;64133;56.002;37.208;2023-03-01T13:07:49;98479.84;;;-1.12;48.92
75549;BME280;64133;56.002;37.208;2023-03-01T13:13:11;98472.42;;;-1.37;49.33
75549;BME280;64133;56.002;37.208;2023-03-01T13:18:31;98473.59;;;-1.53;49.74
75549;BME280;64133;56.002;37.208;2023-03-01T13:23:37;98456.39;;;-1.52;49.75
75549;BME280;64133;56.002;37.208;2023-03-01T13:29:11;98460.84;;;-1.64;49.87
75549;BME280;64133;56.002;37.208;2023-03-01T13:39:41;98451.44;;;-1.57;50.31
75549;BME280;64133;56.002;37.208;2023-03-01T13:44:45;98432.88;;;-1.73;50.63
75549;BME280;64133;56.002;37.208;2023-03-01T13:49:51;98432.28;;;-1.89;51.16
75549;BME280;64133;56.002;37.208;2023-03-01T13:54:55;98430.67;;;-1.72;50.69
75549;BME280;64133;56.002;37.208;2023-03-01T13:59:59;98431.09;;;-2.00;51.44
75549;BME280;64133;56.002;37.208;2023-03-01T14:05:05;98425.75;;;-1.96;51.56
75549;BME280;64133;56.002;37.208;2023-03-01T14:10:12;98416.10;;;-1.92;51.67
75549;BME280;64133;56.002;37.208;2023-03-01T14:15:19;98411.72;;;-2.09;52.22
75549;BME280;64133;56.002;37.208;2023-03-01T14:20:24;98406.53;;;-2.37;53.21
75549;BME280;64133;56.002;37.208;2023-03-01T14:25:29;98400.20;;;-2.30;53.66
75549;BME280;64133;56.002;37.208;2023-03-01T14:30:36;98395.75;;;-2.26;53.81
75549;BME280;64133;56.002;37.208;2023-03-01T14:35:40;98391.44;;;-2.55;54.78
75549;BME280;64133;56.002;37.208;2023-03-01T14:40:44;98381.46;;;-2.62;54.72
75549;BME280;64133;56.002;37.208;2023-03-01T14:45:49;98371.11;;;-2.71;54.81
75549;BME280;64133;56.002;37.208;2023-03-01T14:50:54;98372.63;;;-2.86;55.21
75549;BME280;64133;56.002;37.208;2023-03-01T14:56:00;98380.86;;;-2.88;55.52
75549;BME280;64133;56.002;37.208;2023-03-01T15:01:05;98383.39;;;-2.86;55.40
75549;BME280;64133;56.002;37.208;2023-03-01T15:06:09;98388.48;;;-2.95;55.88
75549;BME280;64133;56.002;37.208;2023-03-01T15:16:33;98370.28;;;-3.21;56.58
75549;BME280;64133;56.002;37.208;2023-03-01T15:21:38;98382.11;;;-3.37;57.20
75549;BME280;64133;56.002;37.208;2023-03-01T15:26:43;98375.61;;;-3.46;57.53
75549;BME280;64133;56.002;37.208;2023-03-01T15:31:56;98379.09;;;-3.37;57.62
75549;BME280;64133;56.002;37.208;2023-03-01T15:37:00;98382.04;;;-3.36;57.71
75549;BME280;64133;56.002;37.208;2023-03-01T15:42:06;98379.73;;;-3.42;57.87
75549;BME280;64133;56.002;37.208;2023-03-01T15:47:23;98373.38;;;-3.43;58.06
75549;BME280;64133;56.002;37.208;2023-03-01T15:52:29;98370.87;;;-3.35;57.50
75549;BME280;64133;56.002;37.208;2023-03-01T15:57:33;98380.27;;;-3.44;57.29
75549;BME280;64133;56.002;37.208;2023-03-01T16:02:38;98380.38;;;-3.37;57.25
75549;BME280;64133;56.002;37.208;2023-03-01T16:07:42;98377.98;;;-3.31;57.36
75549;BME280;64133;56.002;37.208;2023-03-01T16:12:49;98379.61;;;-3.29;57.35
75549;BME280;64133;56.002;37.208;2023-03-01T16:17:55;98377.41;;;-3.27;57.48
75549;BME280;64133;56.002;37.208;2023-03-01T16:23:00;98380.89;;;-3.29;57.69
75549;BME280;64133;56.002;37.208;2023-03-01T16:28:05;98373.11;;;-3.47;58.61
75549;BME280;64133;56.002;37.208;2023-03-01T16:33:09;98373.38;;;-3.43;58.87
75549;BME280;64133;56.002;37.208;2023-03-01T16:38:13;98374.70;;;-3.45;59.33
75549;BME280;64133;56.002;37.208;2023-03-01T16:43:17;98364.48;;;-3.46;59.79
75549;BME280;64133;56.002;37.208;2023-03-01T16:48:22;98365.58;;;-3.52;60.10
75549;BME280;64133;56.002;37.208;2023-03-01T16:53:25;98361.00;;;-3.56;60.38
75549;BME280;64133;56.002;37.208;2023-03-01T16:58:30;98355.06;;;-3.68;60.94
75549;BME280;64133;56.002;37.208;2023-03-01T17:03:33;98349.84;;;-3.66;61.13
75549;BME280;64133;56.002;37.208;2023-03-01T17:08:38;98348.44;;;-3.73;61.24
75549;BME280;64133;56.002;37.208;2023-03-01T17:13:41;98346.55;;;-3.80;61.69
75549;BME280;64133;56.002;37.208;2023-03-01T17:18:45;98343.14;;;-3.81;61.91
75549;BME280;64133;56.002;37.208;2023-03-01T17:23:53;98340.67;;;-3.94;62.22
75549;BME280;64133;56.002;37.208;2023-03-01T17:28:54;98338.02;;;-4.02;62.76
75549;BME280;64133;56.002;37.208;2023-03-01T17:33:58;98336.05;;;-3.96;63.11
75549;BME280;64133;56.002;37.208;2023-03-01T17:39:02;98331.97;;;-4.01;63.44
75549;BME280;64133;56.002;37.208;2023-03-01T17:44:06;98335.79;;;-4.00;64.05
75549;BME280;64133;56.002;37.208;2023-03-01T17:49:09;98324.59;;;-3.99;64.16
75549;BME280;64133;56.002;37.208;2023-03-01T17:54:14;98325.45;;;-4.10;64.58
75549;BME280;64133;56.002;37.208;2023-03-01T17:59:17;98315.80;;;-4.15;65.25
75549;BME280;64133;56.002;37.208;2023-03-01T18:04:22;98321.22;;;-4.11;65.71
75549;BME280;64133;56.002;37.208;2023-03-01T18:09:27;98314.53;;;-4.05;65.54
75549;BME280;64133;56.002;37.208;2023-03-01T18:14:32;98312.95;;;-3.97;65.63
75549;BME280;64133;56.002;37.208;2023-03-01T18:19:38;98312.77;;;-3.93;65.61
75549;BME280;64133;56.002;37.208;2023-03-01T18:29:57;98307.50;;;-3.90;65.96
75549;BME280;64133;56.002;37.208;2023-03-01T18:35:02;98319.19;;;-3.93;66.16
75549;BME280;64133;56.002;37.208;2023-03-01T18:40:09;98299.03;;;-3.82;66.13
75549;BME280;64133;56.002;37.208;2023-03-01T18:45:16;98291.88;;;-3.75;65.95
75549;BME280;64133;56.002;37.208;2023-03-01T18:50:21;98295.11;;;-3.60;65.66
75549;BME280;64133;56.002;37.208;2023-03-01T18:55:26;98295.35;;;-3.66;65.78
75549;BME280;64133;56.002;37.208;2023-03-01T19:00:31;98294.06;;;-3.76;65.96
75549;BME280;64133;56.002;37.208;2023-03-01T19:05:35;98283.14;;;-3.81;66.24
75549;BME280;64133;56.002;37.208;2023-03-01T19:10:39;98291.95;;;-3.76;66.27
75549;BME280;64133;56.002;37.208;2023-03-01T19:15:43;98278.70;;;-3.67;66.22
75549;BME280;64133;56.002;37.208;2023-03-01T19:20:46;98276.84;;;-3.64;66.07
75549;BME280;64133;56.002;37.208;2023-03-01T19:25:51;98268.74;;;-3.65;66.07
75549;BME280;64133;56.002;37.208;2023-03-01T19:30:59;98260.95;;;-3.73;66.33
75549;BME280;64133;56.002;37.208;2023-03-01T19:36:06;98267.50;;;-3.66;66.51
75549;BME280;64133;56.002;37.208;2023-03-01T19:41:11;98254.77;;;-3.59;66.60
75549;BME280;64133;56.002;37.208;2023-03-01T19:46:15;98252.08;;;-3.56;66.96
75549;BME280;64133;56.002;37.208;2023-03-01T19:51:20;98264.23;;;-3.60;67.67
75549;BME280;64133;56.002;37.208;2023-03-01T19:56:23;98259.02;;;-3.68;68.72
75549;BME280;64133;56.002;37.208;2023-03-01T20:01:27;98257.48;;;-3.83;70.05
75549;BME280;64133;56.002;37.208;2023-03-01T20:06:32;98265.59;;;-3.92;70.93
75549;BME280;64133;56.002;37.208;2023-03-01T20:11:37;98265.40;;;-3.87;71.47
75549;BME280;64133;56.002;37.208;2023-03-01T20:16:40;98257.88;;;-3.92;71.89
75549;BME280;64133;56.002;37.208;2023-03-01T20:21:45;98253.68;;;-4.05;72.26
75549;BME280;64133;56.002;37.208;2023-03-01T20:26:48;98246.34;;;-4.03;72.44
75549;BME280;64133;56.002;37.208;2023-03-01T20:31:53;98243.32;;;-4.13;72.72
75549;BME280;64133;56.002;37.208;2023-03-01T20:36:58;98237.77;;;-4.14;72.90
75549;BME280;64133;56.002;37.208;2023-03-01T20:42:01;98228.91;;;-4.17;72.99
75549;BME280;64133;56.002;37.208;2023-03-01T20:47:05;98221.89;;;-4.24;73.37
75549;BME280;64133;56.002;37.208;2023-03-01T20:52:11;98229.37;;;-4.08;73.46
75549;BME280;64133;56.002;37.208;2023-03-01T20:57:15;98234.50;;;-3.97;73.28
75549;BME280;64133;56.002;37.208;2023-03-01T21:02:20;98235.72;;;-4.06;73.28
75549;BME280;64133;56.002;37.208;2023-03-01T21:07:23;98244.19;;;-4.14;73.81
75549;BME280;64133;56.002;37.208;2023-03-01T21:12:28;98241.63;;;-4.14;74.06
75549;BME280;64133;56.002;37.208;2023-03-01T21:17:33;98235.16;;;-4.13;74.08
75549;BME280;64133;56.002;37.208;2023-03-01T21:22:36;98233.16;;;-4.06;74.14
75549;BME280;64133;56.002;37.208;2023-03-01T21:27:40;98228.27;;;-4.12;74.09
75549;BME280;64133;56.002;37.208;2023-03-01T21:32:44;98228.20;;;-4.21;74.43
75549;BME280;64133;56.002;37.208;2023-03-01T21:37:48;98235.88;;;-4.31;74.82
75549;BME280;64133;56.002;37.208;2023-03-01T21:42:52;98234.93;;;-4.28;75.18
75549;BME280;64133;56.002;37.208;2023-03-01T21:47:57;98239.31;;;-4.31;75.29
75549;BME280;64133;56.002;37.208;2023-03-01T21:53:01;98244.00;;;-4.30;75.58
75549;BME280;64133;56.002;37.208;2023-03-01T21:58:05;98251.34;;;-4.21;75.55
75549;BME280;64133;56.002;37.208;2023-03-01T22:03:09;98248.23;;;-4.29;75.82
75549;BME280;64133;56.002;37.208;2023-03-01T22:08:12;98246.61;;;-4.32;75.98
75549;BME280;64133;56.002;37.208;2023-03-01T22:13:17;98253.38;;;-4.19;76.02
75549;BME280;64133;56.002;37.208;2023-03-01T22:18:20;98251.53;;;-4.15;76.05
75549;BME280;64133;56.002;37.208;2023-03-01T22:23:25;98252.06;;;-4.07;75.99
75549;BME280;64133;56.002;37.208;2023-03-01T22:28:28;98269.94;;;-4.04;75.88
75549;BME280;64133;56.002;37.208;2023-03-01T22:33:33;98258.38;;;-4.04;75.91
75549;BME280;64133;56.002;37.208;2023-03-01T22:38:36;98267.94;;;-4.08;76.02
75549;BME280;64133;56.002;37.208;2023-03-01T22:43:40;98263.78;;;-4.00;76.20
75549;BME280;64133;56.002;37.208;2023-03-01T22:48:44;98271.75;;;-3.86;75.99
75549;BME280;64133;56.002;37.208;2023-03-01T22:53:48;98266.75;;;-3.78;76.04
75549;BME280;64133;56.002;37.208;2023-03-01T22:58:53;98263.20;;;-3.76;76.06
75549;BME280;64133;56.002;37.208;2023-03-01T23:03:58;98277.42;;;-3.77;76.00
75549;BME280;64133;56.002;37.208;2023-03-01T23:09:02;98283.33;;;-3.75;76.15
75549;BME280;64133;56.002;37.208;2023-03-01T23:14:05;98272.97;;;-3.94;76.33
75549;BME280;64133;56.002;37.208;2023-03-01T23:19:09;98276.67;;;-4.01;76.73
75549;BME280;64133;56.002;37.208;2023-03-01T23:24:14;98278.30;;;-3.89;76.91
75549;BME280;64133;56.002;37.208;2023-03-01T23:29:19;98293.42;;;-3.81;76.70
75549;BME280;64133;56.002;37.208;2023-03-01T23:34:22;98286.87;;;-3.78;76.55
75549;BME280;64133;56.002;37.208;2023-03-01T23:39:26;98279.16;;;-3.78;76.56
75549;BME280;64133;56.002;37.208;2023-03-01T23:44:30;98293.23;;;-3.76;76.46
75549;BME280;64133;56.002;37.208;2023-03-01T23:49:34;98291.12;;;-3.77;76.53
75549;BME280;64133;56.002;37.208;2023-03-01T23:54:37;98287.71;;;-3.77;76.56
75549;BME280;64133;56.002;37.208;2023-03-01T23:59:42;98288.02;;;-3.75;76.43
